createdAt,value
2018-09-27T00:00:29.214Z,49.72
2018-09-27T00:02:56.994Z,49.30
2018-09-27T00:05:24.614Z,49.48
2018-09-27T00:07:52.060Z,49.40
2018-09-27T00:10:19.817Z,49.06
2018-09-27T00:12:47.290Z,49.43
2018-09-27T00:15:14.737Z,49.17
2018-09-27T00:17:42.432Z,48.79
2018-09-27T00:20:09.965Z,48.73
2018-09-27T00:22:37.430Z,48.27
2018-09-27T00:25:05.175Z,49.07
2018-09-27T00:27:32.702Z,48.65
2018-09-27T00:30:00.158Z,48.72
2018-09-27T00:32:27.856Z,48.93
2018-09-27T00:34:55.415Z,48.71
2018-09-27T00:37:22.945Z,48.97
2018-09-27T00:39:50.542Z,48.93
2018-09-27T00:42:18.039Z,48.64
2018-09-27T00:44:45.598Z,48.36
2018-09-27T00:47:13.474Z,48.81
2018-09-27T00:49:40.979Z,48.62
2018-09-27T00:52:08.468Z,48.60
2018-09-27T00:54:36.140Z,48.90
2018-09-27T00:57:03.883Z,48.74
2018-09-27T00:59:31.396Z,48.98
2018-09-27T01:01:59.197Z,48.69
2018-09-27T01:04:26.688Z,48.88
2018-09-27T01:06:54.210Z,48.67
2018-09-27T01:09:21.906Z,48.71
2018-09-27T01:11:49.354Z,49.05
2018-09-27T01:14:16.946Z,48.94
2018-09-27T01:16:44.893Z,48.93
2018-09-27T01:19:12.392Z,48.77
2018-09-27T01:21:39.874Z,48.80
2018-09-27T01:24:07.591Z,48.96
2018-09-27T01:26:35.052Z,49.13
2018-09-27T01:29:02.598Z,49.21
2018-09-27T01:31:30.281Z,48.77
2018-09-27T01:33:57.790Z,49.11
2018-09-27T01:36:25.301Z,49.18
2018-09-27T01:38:53.089Z,48.91
2018-09-27T01:41:20.622Z,49.16
2018-09-27T01:43:48.240Z,48.66
2018-09-27T01:46:15.917Z,49.05
2018-09-27T01:48:43.394Z,48.74
2018-09-27T01:51:10.896Z,48.96
2018-09-27T01:53:38.635Z,48.68
2018-09-27T01:56:06.093Z,48.52
2018-09-27T01:58:33.881Z,48.58
2018-09-27T02:01:01.539Z,48.97
2018-09-27T02:03:29.077Z,48.83
2018-09-27T02:05:56.584Z,48.49
2018-09-27T02:08:24.315Z,48.33
2018-09-27T02:10:51.777Z,48.72
2018-09-27T02:13:19.505Z,48.45
2018-09-27T02:15:47.160Z,48.51
2018-09-27T02:18:14.928Z,48.52
2018-09-27T02:20:42.358Z,48.63
2018-09-27T02:23:10.041Z,48.54
2018-09-27T02:25:37.509Z,48.34
2018-09-27T02:28:05.069Z,48.17
2018-09-27T02:30:32.861Z,48.51
2018-09-27T02:33:00.302Z,48.56
2018-09-27T02:35:27.805Z,48.48
2018-09-27T02:37:55.774Z,48.47
2018-09-27T02:40:23.354Z,48.05
2018-09-27T02:42:50.844Z,48.50
2018-09-27T02:45:18.587Z,48.09
2018-09-27T02:47:46.060Z,48.52
2018-09-27T02:50:13.722Z,48.33
2018-09-27T02:52:41.484Z,48.36
2018-09-27T02:55:09.098Z,48.68
2018-09-27T02:57:36.568Z,48.06
2018-09-27T03:00:04.323Z,48.10
2018-09-27T03:02:31.845Z,48.50
2018-09-27T03:04:59.413Z,48.34
2018-09-27T03:07:26.954Z,48.06
2018-09-27T03:09:54.409Z,48.42
2018-09-27T03:12:21.908Z,48.35
2018-09-27T03:14:49.620Z,48.68
2018-09-27T03:17:17.151Z,48.22
2018-09-27T03:19:44.650Z,48.44
2018-09-27T03:22:12.326Z,48.73
2018-09-27T03:24:39.840Z,48.33
2018-09-27T03:27:07.316Z,48.12
2018-09-27T03:29:35.079Z,48.41
2018-09-27T03:32:02.568Z,48.31
2018-09-27T03:34:30.114Z,48.83
2018-09-27T03:36:58.024Z,48.48
2018-09-27T03:39:25.573Z,48.50
2018-09-27T03:41:53.089Z,48.79
2018-09-27T03:44:20.822Z,48.65
2018-09-27T03:46:48.295Z,48.59
2018-09-27T03:49:15.787Z,48.77
2018-09-27T03:51:43.442Z,48.55
2018-09-27T03:54:10.934Z,48.54
2018-09-27T03:56:38.448Z,48.28
2018-09-27T03:59:06.222Z,48.83
2018-09-27T04:01:34.068Z,48.51
2018-09-27T04:04:01.625Z,49.06
2018-09-27T04:06:29.209Z,48.20
2018-09-27T04:08:56.770Z,48.57
2018-09-27T04:11:24.216Z,48.34
2018-09-27T04:13:51.969Z,48.71
2018-09-27T04:16:19.475Z,48.91
2018-09-27T04:18:47.306Z,48.74
2018-09-27T04:21:15.012Z,48.49
2018-09-27T04:23:42.468Z,48.55
2018-09-27T04:26:09.989Z,48.29
2018-09-27T04:28:37.555Z,48.27
2018-09-27T04:31:05.094Z,48.75
2018-09-27T04:33:32.742Z,48.53
2018-09-27T04:36:00.585Z,48.77
2018-09-27T04:38:28.014Z,48.43
2018-09-27T04:40:55.542Z,48.39
2018-09-27T04:43:23.133Z,48.40
2018-09-27T04:45:51.071Z,48.71
2018-09-27T04:48:18.546Z,48.37
2018-09-27T04:50:46.237Z,48.65
2018-09-27T04:53:13.767Z,48.72
2018-09-27T04:55:41.223Z,48.46
2018-09-27T04:58:08.916Z,48.54
2018-09-27T05:00:36.371Z,48.40
2018-09-27T05:03:03.976Z,48.49
2018-09-27T05:05:31.578Z,48.48
2018-09-27T05:07:59.039Z,48.86
2018-09-27T05:10:26.581Z,48.69
2018-09-27T05:12:54.194Z,48.67
2018-09-27T05:15:21.688Z,48.34
2018-09-27T05:17:49.126Z,48.58
2018-09-27T05:20:17.035Z,48.85
2018-09-27T05:22:44.540Z,48.49
2018-09-27T05:25:11.955Z,48.73
2018-09-27T05:27:39.723Z,48.51
2018-09-27T05:30:07.227Z,48.54
2018-09-27T05:32:34.720Z,48.60
2018-09-27T05:35:02.451Z,48.87
2018-09-27T05:37:30.144Z,48.73
2018-09-27T05:39:57.639Z,48.72
2018-09-27T05:42:25.406Z,48.92
2018-09-27T05:44:52.970Z,48.80
2018-09-27T05:47:20.451Z,49.14
2018-09-27T05:49:48.091Z,48.91
2018-09-27T05:52:15.562Z,48.60
2018-09-27T05:54:43.058Z,48.79
2018-09-27T05:57:10.827Z,48.74
2018-09-27T05:59:38.247Z,48.49
2018-09-27T06:02:06.218Z,48.42
2018-09-27T06:04:34.273Z,48.96
2018-09-27T06:07:01.786Z,48.55
2018-09-27T06:09:29.296Z,48.48
2018-09-27T06:11:56.848Z,48.68
2018-09-27T06:14:24.392Z,48.53
2018-09-27T06:16:51.843Z,48.52
2018-09-27T06:19:19.707Z,48.48
2018-09-27T06:21:47.220Z,48.21
2018-09-27T06:24:14.741Z,48.05
2018-09-27T06:26:42.467Z,48.19
2018-09-27T06:29:09.968Z,47.81
2018-09-27T06:31:37.451Z,47.74
2018-09-27T06:34:05.200Z,47.85
2018-09-27T06:36:32.704Z,47.69
2018-09-27T06:39:00.318Z,47.57
2018-09-27T06:41:28.029Z,47.45
2018-09-27T06:43:55.518Z,47.49
2018-09-27T06:46:22.990Z,47.29
2018-09-27T06:48:50.764Z,47.09
2018-09-27T06:51:19.138Z,46.99
2018-09-27T06:53:46.600Z,47.06
2018-09-27T06:56:14.419Z,46.87
2018-09-27T06:58:41.875Z,47.09
2018-09-27T07:01:09.590Z,46.79
2018-09-27T07:03:37.397Z,46.55
2018-09-27T07:06:05.142Z,46.61
2018-09-27T07:08:32.777Z,46.82
2018-09-27T07:11:00.569Z,46.40
2018-09-27T07:13:28.122Z,46.20
2018-09-27T07:15:55.660Z,46.39
2018-09-27T07:18:23.186Z,46.25
2018-09-27T07:20:50.832Z,46.52
2018-09-27T07:23:18.258Z,46.72
2018-09-27T07:25:46.022Z,46.32
2018-09-27T07:28:13.526Z,46.20
2018-09-27T07:30:40.960Z,46.09
2018-09-27T07:33:08.662Z,45.82
2018-09-27T07:35:36.263Z,46.06
2018-09-27T07:38:03.996Z,45.70
2018-09-27T07:40:31.520Z,46.08
2018-09-27T07:42:58.905Z,45.82
2018-09-27T07:45:26.672Z,45.66
2018-09-27T07:47:54.138Z,45.86
2018-09-27T07:50:27.231Z,45.38
2018-09-27T07:52:55.031Z,45.36
2018-09-27T07:55:22.581Z,45.28
2018-09-27T07:57:50.160Z,45.31
2018-09-27T08:00:18.124Z,45.05
2018-09-27T08:02:45.730Z,44.58
2018-09-27T08:05:13.205Z,44.72
2018-09-27T08:07:41.057Z,45.08
2018-09-27T08:10:08.542Z,44.79
2018-09-27T08:12:36.030Z,44.91
2018-09-27T08:15:03.713Z,44.78
2018-09-27T08:17:31.214Z,44.57
2018-09-27T08:19:58.688Z,44.40
2018-09-27T08:22:26.453Z,44.31
2018-09-27T08:24:53.907Z,43.69
2018-09-27T08:27:21.386Z,43.47
2018-09-27T08:29:49.015Z,43.67
2018-09-27T08:32:16.600Z,43.26
2018-09-27T08:34:44.151Z,43.77
2018-09-27T08:37:12.105Z,43.99
2018-09-27T08:39:39.582Z,43.58
2018-09-27T08:42:07.108Z,43.68
2018-09-27T08:44:34.871Z,43.26
2018-09-27T08:47:02.371Z,43.51
2018-09-27T08:49:29.851Z,43.62
2018-09-27T08:51:57.566Z,43.13
2018-09-27T08:54:25.056Z,43.01
2018-09-27T08:56:52.556Z,43.22
2018-09-27T08:59:20.062Z,42.97
2018-09-27T09:01:47.558Z,42.93
2018-09-27T09:04:15.062Z,42.80
2018-09-27T09:06:42.685Z,42.96
2018-09-27T09:09:11.852Z,43.03
2018-09-27T09:11:39.344Z,42.54
2018-09-27T09:14:07.019Z,42.82
2018-09-27T09:16:34.536Z,42.33
2018-09-27T09:19:02.020Z,42.16
2018-09-27T09:21:29.656Z,42.14
2018-09-27T09:23:57.129Z,42.08
2018-09-27T09:26:24.634Z,42.48
2018-09-27T09:28:52.207Z,41.79
2018-09-27T09:31:19.783Z,41.64
2018-09-27T09:33:47.279Z,41.47
2018-09-27T09:36:15.009Z,41.52
2018-09-27T09:38:42.799Z,41.86
2018-09-27T09:41:10.282Z,41.52
2018-09-27T09:43:38.060Z,40.70
2018-09-27T09:46:05.695Z,40.76
2018-09-27T09:48:33.225Z,40.17
2018-09-27T09:51:00.923Z,40.57
2018-09-27T09:53:28.460Z,39.63
2018-09-27T09:55:56.029Z,39.20
2018-09-27T09:58:23.708Z,38.76
2018-09-27T10:00:51.291Z,38.73
2018-09-27T10:03:18.854Z,38.75
2018-09-27T10:05:46.488Z,38.42
2018-09-27T10:08:13.935Z,38.19
2018-09-27T10:10:41.428Z,38.20
2018-09-27T10:13:09.018Z,38.14
2018-09-27T10:15:36.446Z,37.64
2018-09-27T10:18:04.012Z,36.75
2018-09-27T10:20:31.748Z,37.31
2018-09-27T10:22:59.208Z,36.95
2018-09-27T10:25:26.687Z,36.55
2018-09-27T10:27:54.326Z,36.83
2018-09-27T10:30:21.788Z,36.70
2018-09-27T10:32:49.406Z,36.76
2018-09-27T10:35:17.163Z,35.97
2018-09-27T10:37:44.614Z,35.97
2018-09-27T10:40:12.346Z,35.68
2018-09-27T10:42:40.045Z,35.95
2018-09-27T10:45:07.515Z,36.21
2018-09-27T10:47:34.997Z,35.97
2018-09-27T10:50:02.800Z,35.63
2018-09-27T10:52:30.282Z,35.49
2018-09-27T10:54:57.777Z,35.63
2018-09-27T10:57:25.506Z,35.38
2018-09-27T10:59:53.029Z,34.95
2018-09-27T11:02:20.589Z,34.91
2018-09-27T11:04:48.269Z,34.80
2018-09-27T11:07:15.747Z,35.15
2018-09-27T11:09:43.279Z,34.91
2018-09-27T11:12:10.896Z,34.71
2018-09-27T11:14:38.345Z,33.97
2018-09-27T11:17:05.838Z,34.12
2018-09-27T11:19:33.586Z,33.80
2018-09-27T11:22:01.199Z,33.97
2018-09-27T11:24:28.657Z,33.70
2018-09-27T11:26:56.471Z,33.47
2018-09-27T11:29:29.378Z,33.16
2018-09-27T11:32:02.556Z,33.60
2018-09-27T11:34:30.225Z,33.55
2018-09-27T11:36:57.741Z,33.28
2018-09-27T11:39:25.266Z,33.00
2018-09-27T11:41:53.084Z,32.92
2018-09-27T11:44:20.590Z,32.72
2018-09-27T11:46:48.034Z,32.12
2018-09-27T11:49:15.920Z,31.80
2018-09-27T11:51:43.188Z,32.18
2018-09-27T11:54:10.861Z,32.01
2018-09-27T11:56:38.262Z,32.28
2018-09-27T11:59:05.859Z,32.06
2018-09-27T12:01:33.636Z,32.07
2018-09-27T12:04:01.091Z,31.94
2018-09-27T12:06:28.785Z,31.80
2018-09-27T12:08:56.557Z,32.01
2018-09-27T12:11:24.073Z,32.10
2018-09-27T12:13:51.644Z,31.72
2018-09-27T12:16:19.280Z,31.42
2018-09-27T12:18:46.717Z,30.66
2018-09-27T12:21:14.250Z,30.63
2018-09-27T12:23:42.226Z,30.67
2018-09-27T12:26:09.708Z,31.06
2018-09-27T12:28:37.245Z,30.61
2018-09-27T12:31:05.370Z,31.39
2018-09-27T12:33:32.921Z,30.81
2018-09-27T12:36:00.403Z,31.65
2018-09-27T12:38:27.866Z,30.73
2018-09-27T12:40:55.318Z,30.37
2018-09-27T12:43:23.075Z,30.78
2018-09-27T12:45:50.659Z,30.35
2018-09-27T12:48:18.230Z,30.96
2018-09-27T12:50:45.834Z,30.66
2018-09-27T12:53:13.652Z,30.67
2018-09-27T12:55:41.058Z,30.73
2018-09-27T12:58:08.530Z,30.72
2018-09-27T13:00:36.253Z,30.65
2018-09-27T13:03:03.749Z,30.86
2018-09-27T13:05:31.250Z,30.95
2018-09-27T13:07:59.066Z,31.05
2018-09-27T13:10:26.580Z,31.11
2018-09-27T13:12:54.244Z,31.37
2018-09-27T13:15:22.033Z,31.04
2018-09-27T13:17:49.453Z,31.13
2018-09-27T13:20:17.064Z,31.28
2018-09-27T13:22:44.600Z,31.07
2018-09-27T13:25:12.109Z,30.82
2018-09-27T13:27:39.652Z,30.83
2018-09-27T13:30:07.222Z,30.89
2018-09-27T13:32:34.776Z,30.77
2018-09-27T13:35:02.320Z,30.52
2018-09-27T13:37:29.882Z,30.99
2018-09-27T13:39:57.668Z,31.00
2018-09-27T13:42:25.241Z,31.41
2018-09-27T13:44:53.002Z,31.10
2018-09-27T13:47:20.607Z,31.34
2018-09-27T13:49:48.080Z,32.06
2018-09-27T13:52:15.706Z,31.57
2018-09-27T13:54:43.146Z,32.07
2018-09-27T13:57:10.710Z,31.99
2018-09-27T13:59:38.262Z,32.30
2018-09-27T14:02:06.018Z,31.96
2018-09-27T14:04:33.767Z,32.08
2018-09-27T14:07:01.583Z,32.86
2018-09-27T14:09:29.054Z,32.47
2018-09-27T14:11:56.614Z,32.86
2018-09-27T14:14:24.183Z,32.99
2018-09-27T14:16:51.637Z,33.30
2018-09-27T14:19:19.246Z,33.14
2018-09-27T14:21:46.921Z,33.01
2018-09-27T14:24:14.495Z,33.14
2018-09-27T14:26:41.957Z,33.93
2018-09-27T14:29:09.407Z,33.32
2018-09-27T14:31:36.885Z,33.62
2018-09-27T14:34:04.338Z,33.90
2018-09-27T14:36:32.019Z,33.87
2018-09-27T14:38:59.756Z,33.69
2018-09-27T14:41:27.345Z,33.96
2018-09-27T14:43:54.826Z,34.08
2018-09-27T14:46:22.442Z,33.69
2018-09-27T14:48:49.992Z,34.35
2018-09-27T14:51:17.666Z,33.70
2018-09-27T14:53:45.220Z,34.35
2018-09-27T14:56:12.697Z,34.54
2018-09-27T14:58:40.503Z,34.53
2018-09-27T15:01:08.021Z,34.81
2018-09-27T15:03:35.485Z,35.03
2018-09-27T15:06:03.249Z,35.29
2018-09-27T15:08:30.754Z,35.50
2018-09-27T15:10:58.283Z,35.22
2018-09-27T15:13:25.838Z,35.48
2018-09-27T15:15:53.355Z,35.43
2018-09-27T15:18:20.893Z,36.10
2018-09-27T15:20:48.536Z,36.14
2018-09-27T15:23:16.070Z,36.00
2018-09-27T15:25:43.495Z,36.55
2018-09-27T15:28:11.189Z,36.53
2018-09-27T15:30:38.739Z,36.77
2018-09-27T15:33:07.329Z,36.88
2018-09-27T15:35:34.979Z,37.11
2018-09-27T15:38:02.485Z,37.50
2018-09-27T15:40:29.963Z,37.71
2018-09-27T15:42:57.605Z,37.65
2018-09-27T15:45:25.096Z,38.14
2018-09-27T15:47:52.914Z,38.84
2018-09-27T15:50:20.650Z,39.05
2018-09-27T15:52:48.105Z,39.27
2018-09-27T15:55:15.544Z,39.60
2018-09-27T15:57:43.217Z,39.52
2018-09-27T16:00:10.638Z,40.50
2018-09-27T16:02:38.075Z,40.44
2018-09-27T16:05:06.042Z,40.93
2018-09-27T16:07:33.526Z,40.78
2018-09-27T16:10:01.017Z,40.76
2018-09-27T16:12:28.607Z,41.55
2018-09-27T16:14:56.154Z,41.14
2018-09-27T16:17:23.630Z,41.81
2018-09-27T16:19:51.307Z,41.37
2018-09-27T16:22:18.792Z,42.18
2018-09-27T16:24:46.344Z,42.36
2018-09-27T16:27:14.001Z,42.40
2018-09-27T16:29:41.664Z,42.62
2018-09-27T16:32:09.107Z,42.38
2018-09-27T16:34:36.917Z,42.76
2018-09-27T16:37:04.469Z,43.24
2018-09-27T16:39:31.969Z,42.79
2018-09-27T16:41:59.568Z,43.04
2018-09-27T16:44:27.048Z,43.54
2018-09-27T16:46:54.516Z,43.58
2018-09-27T16:49:22.497Z,43.65
2018-09-27T16:51:50.011Z,43.84
2018-09-27T16:54:17.530Z,44.09
2018-09-27T16:56:45.237Z,44.04
2018-09-27T16:59:12.685Z,44.78
2018-09-27T17:01:40.214Z,44.54
2018-09-27T17:04:07.845Z,44.60
2018-09-27T17:06:35.369Z,44.83
2018-09-27T17:09:03.582Z,45.09
2018-09-27T17:11:31.203Z,45.27
2018-09-27T17:13:58.706Z,45.11
2018-09-27T17:19:00.427Z,45.44
2018-09-27T17:21:27.831Z,45.88
2018-09-27T17:23:55.272Z,46.25
2018-09-27T17:26:22.929Z,46.16
2018-09-27T17:28:50.386Z,46.31
2018-09-27T17:31:17.844Z,46.47
2018-09-27T17:33:45.536Z,46.47
2018-09-27T17:36:13.158Z,46.93
2018-09-27T17:38:40.651Z,46.76
2018-09-27T17:41:08.351Z,47.24
2018-09-27T17:43:35.828Z,47.08
2018-09-27T17:46:03.405Z,47.34
2018-09-27T17:48:30.905Z,47.10
2018-09-27T17:50:58.728Z,47.36
2018-09-27T17:53:26.361Z,47.44
2018-09-27T17:55:54.083Z,47.81
2018-09-27T17:58:21.628Z,48.26
2018-09-27T18:00:49.356Z,48.08
2018-09-27T18:03:16.931Z,48.24
2018-09-27T18:05:44.520Z,48.25
2018-09-27T18:08:11.971Z,48.34
2018-09-27T18:10:39.694Z,48.37
2018-09-27T18:13:07.242Z,48.51
2018-09-27T18:15:34.724Z,48.85
2018-09-27T18:18:02.334Z,48.98
2018-09-27T18:20:29.865Z,48.73
2018-09-27T18:22:57.376Z,49.01
2018-09-27T18:25:25.166Z,49.39
2018-09-27T18:27:52.611Z,49.81
2018-09-27T18:30:20.105Z,49.51
2018-09-27T18:32:47.711Z,49.96
2018-09-27T18:35:15.210Z,50.31
2018-09-27T18:37:42.700Z,49.94
2018-09-27T18:40:10.487Z,49.98
2018-09-27T18:42:37.966Z,50.44
2018-09-27T18:45:05.532Z,50.84
2018-09-27T18:47:33.141Z,50.60
2018-09-27T18:50:00.663Z,50.86
2018-09-27T18:52:28.484Z,50.97
2018-09-27T18:54:56.121Z,51.20
2018-09-27T18:57:23.631Z,51.27
2018-09-27T18:59:51.221Z,51.33
2018-09-27T19:02:18.949Z,51.21
2018-09-27T19:04:46.472Z,51.77
2018-09-27T19:07:13.980Z,51.65
2018-09-27T19:09:41.634Z,51.87
2018-09-27T19:12:09.153Z,51.95
2018-09-27T19:14:36.616Z,52.01
2018-09-27T19:17:04.390Z,52.00
2018-09-27T19:19:31.876Z,52.27
2018-09-27T19:21:59.383Z,52.09
2018-09-27T19:24:27.017Z,52.41
2018-09-27T19:26:54.544Z,52.39
2018-09-27T19:29:22.070Z,52.37
2018-09-27T19:31:49.721Z,52.27
2018-09-27T19:34:17.226Z,52.45
2018-09-27T19:36:44.756Z,52.35
2018-09-27T19:39:12.558Z,52.68
2018-09-27T19:41:40.415Z,52.72
2018-09-27T19:44:07.962Z,52.57
2018-09-27T19:46:35.717Z,53.00
2018-09-27T19:49:03.282Z,52.75
2018-09-27T19:51:30.730Z,53.01
2018-09-27T19:53:58.710Z,53.21
2018-09-27T19:56:26.226Z,53.41
2018-09-27T19:58:53.757Z,53.06
2018-09-27T20:01:21.508Z,53.33
2018-09-27T20:03:48.964Z,53.70
2018-09-27T20:06:16.502Z,53.80
2018-09-27T20:08:45.106Z,53.52
2018-09-27T20:11:12.590Z,53.61
2018-09-27T20:13:40.113Z,53.68
2018-09-27T20:16:07.892Z,53.79
2018-09-27T20:18:35.365Z,53.98
2018-09-27T20:21:02.938Z,53.84
2018-09-27T20:23:30.636Z,53.95
2018-09-27T20:25:58.204Z,54.17
2018-09-27T20:28:25.758Z,54.07
2018-09-27T20:30:53.658Z,54.52
2018-09-27T20:33:21.244Z,54.52
2018-09-27T20:35:48.729Z,54.55
2018-09-27T20:38:16.390Z,54.58
2018-09-27T20:40:43.948Z,54.24
2018-09-27T20:43:11.465Z,54.39
2018-09-27T20:45:39.294Z,54.44
2018-09-27T20:48:06.831Z,54.68
2018-09-27T20:50:34.314Z,54.87
2018-09-27T20:53:02.017Z,54.75
2018-09-27T20:55:29.685Z,54.73
2018-09-27T20:57:57.701Z,54.98
2018-09-27T21:00:25.304Z,54.88
2018-09-27T21:02:52.777Z,55.04
2018-09-27T21:05:20.247Z,54.97
2018-09-27T21:07:47.833Z,55.06
2018-09-27T21:10:15.315Z,55.09
2018-09-27T21:12:42.806Z,54.97
2018-09-27T21:15:10.371Z,55.28
2018-09-27T21:17:37.877Z,55.30
2018-09-27T21:20:05.416Z,55.18
2018-09-27T21:22:33.057Z,55.16
2018-09-27T21:25:00.538Z,55.45
2018-09-27T21:27:28.010Z,55.42
2018-09-27T21:29:55.590Z,55.54
2018-09-27T21:32:23.210Z,55.76
2018-09-27T21:34:50.751Z,55.63
2018-09-27T21:37:18.299Z,55.63
2018-09-27T21:39:45.758Z,55.90
2018-09-27T21:42:13.326Z,55.80
2018-09-27T21:44:40.980Z,56.09
2018-09-27T21:47:08.515Z,56.08
2018-09-27T21:49:35.977Z,56.24
2018-09-27T21:52:03.676Z,56.08
2018-09-27T21:54:31.101Z,56.05
2018-09-27T21:56:59.033Z,56.26
2018-09-27T21:59:26.650Z,56.28
2018-09-27T22:01:54.089Z,56.30
2018-09-27T22:04:21.634Z,56.20
2018-09-27T22:06:49.660Z,56.46
2018-09-27T22:09:17.148Z,56.43
2018-09-27T22:11:44.675Z,56.49
2018-09-27T22:14:12.186Z,56.60
2018-09-27T22:16:39.645Z,56.49
2018-09-27T22:19:07.184Z,56.56
2018-09-27T22:21:34.971Z,56.90
2018-09-27T22:24:02.488Z,56.58
2018-09-27T22:26:29.928Z,56.75
2018-09-27T22:28:57.635Z,56.92
2018-09-27T22:31:25.360Z,57.11
2018-09-27T22:33:52.789Z,56.79
2018-09-27T22:36:20.500Z,56.68
2018-09-27T22:38:47.997Z,56.90
2018-09-27T22:41:15.447Z,56.90
2018-09-27T22:43:43.156Z,56.94
2018-09-27T22:46:10.657Z,56.95
2018-09-27T22:48:38.090Z,57.27
2018-09-27T22:51:05.823Z,57.01
2018-09-27T22:53:33.316Z,57.14
2018-09-27T22:56:00.754Z,57.19
2018-09-27T22:58:28.910Z,57.11
2018-09-27T23:00:56.360Z,57.37
2018-09-27T23:03:23.862Z,57.30
2018-09-27T23:05:51.552Z,57.60
2018-09-27T23:08:19.043Z,57.44
2018-09-27T23:10:46.501Z,57.54
2018-09-27T23:13:14.117Z,57.61
2018-09-27T23:15:41.722Z,57.67
2018-09-27T23:18:09.215Z,57.73
2018-09-27T23:20:36.930Z,57.70
2018-09-27T23:23:04.457Z,57.59
2018-09-27T23:25:31.993Z,57.77
2018-09-27T23:27:59.755Z,57.67
2018-09-27T23:30:27.290Z,57.94
2018-09-27T23:32:55.724Z,58.01
2018-09-27T23:35:23.440Z,57.83
2018-09-27T23:37:50.971Z,58.09
2018-09-27T23:40:18.487Z,58.17
2018-09-27T23:42:46.228Z,58.04
2018-09-27T23:45:13.670Z,58.11
2018-09-27T23:47:41.159Z,58.14
2018-09-27T23:50:08.909Z,58.18
2018-09-27T23:52:36.355Z,58.10
2018-09-27T23:55:03.862Z,58.19
2018-09-27T23:57:32.600Z,58.21
